createdAt,value
2018-03-18T14:50:40.689Z,31.10
2018-03-18T15:18:06.189Z,15.00
2018-03-18T15:20:07.233Z,14.60
2018-03-18T15:22:08.194Z,19.60
2018-03-18T15:24:09.519Z,22.50
2018-03-18T15:26:10.680Z,22.60
2018-03-18T15:28:11.666Z,22.80
2018-03-18T15:30:12.632Z,24.70
2018-03-18T15:32:13.633Z,23.60
2018-03-18T15:34:14.605Z,23.50
2018-03-18T15:36:15.557Z,24.00
2018-03-18T15:38:16.885Z,23.40
2018-03-18T15:40:18.216Z,24.70
2018-03-18T15:42:19.196Z,24.70
2018-03-18T15:44:20.236Z,23.80
2018-03-18T15:46:21.320Z,23.70
2018-03-18T15:48:22.282Z,24.70
2018-03-18T15:50:23.612Z,24.90
2018-03-18T15:52:25.189Z,25.50
2018-03-18T15:54:26.210Z,25.50
2018-03-18T15:56:27.272Z,25.60
2018-03-18T15:58:28.252Z,25.30
2018-03-18T16:00:29.292Z,25.90
2018-03-18T16:02:30.234Z,26.10
2018-03-18T16:04:31.237Z,25.70
2018-03-18T16:06:32.225Z,26.10
2018-03-18T16:08:33.199Z,26.80
2018-03-18T16:10:34.543Z,28.40
2018-03-18T16:12:35.528Z,29.10
2018-03-18T16:14:37.166Z,29.20
2018-03-18T16:16:38.143Z,29.20
2018-03-18T16:18:39.128Z,29.00
2018-03-18T16:20:40.142Z,29.70
2018-03-18T16:22:41.104Z,29.70
2018-03-18T16:24:42.159Z,30.30
2018-03-18T16:26:43.488Z,31.10
2018-03-18T16:28:44.444Z,31.10
2018-03-18T16:30:58.329Z,31.60
2018-03-18T16:32:59.293Z,31.60
2018-03-18T16:35:00.641Z,31.90
2018-03-18T16:37:01.993Z,32.40
2018-03-18T16:39:03.334Z,32.90
2018-03-18T16:41:04.302Z,32.90
2018-03-18T16:43:05.330Z,33.10
2018-03-18T16:45:06.304Z,33.10
2018-03-18T16:47:07.266Z,32.40
2018-03-18T16:49:14.376Z,34.70
2018-03-18T16:51:15.356Z,34.70
2018-03-18T16:53:16.312Z,35.10
2018-03-18T16:55:17.671Z,35.90
2018-03-18T16:57:18.997Z,36.40
2018-03-18T16:59:19.950Z,36.40
2018-03-18T17:01:20.947Z,37.00
2018-03-18T17:03:21.937Z,37.30
2018-03-18T17:05:22.903Z,37.70
2018-03-18T17:07:23.898Z,38.30
2018-03-18T17:09:24.928Z,39.80
2018-03-18T17:11:25.898Z,39.70
2018-03-18T17:13:26.865Z,39.90
2018-03-18T17:15:27.901Z,40.10
2018-03-18T17:17:28.860Z,40.60
2018-03-18T17:19:30.296Z,41.10
2018-03-18T17:21:32.605Z,41.30
2018-03-18T17:23:33.608Z,41.30
2018-03-18T17:25:34.654Z,41.00
2018-03-18T17:27:35.677Z,41.00
2018-03-18T17:29:37.029Z,41.40
2018-03-18T17:31:38.036Z,41.40
2018-03-18T17:33:39.011Z,40.90
2018-03-18T17:35:39.992Z,41.40
2018-03-18T17:37:40.976Z,41.60
2018-03-18T17:39:41.961Z,41.40
2018-03-18T17:41:42.933Z,41.40
2018-03-18T17:43:44.317Z,41.80
2018-03-18T17:45:57.752Z,41.80
2018-03-18T17:48:11.230Z,41.60
2018-03-18T17:50:24.762Z,41.70
2018-03-18T17:52:38.564Z,41.90
2018-03-18T17:54:52.132Z,41.90
2018-03-18T17:56:53.112Z,42.50
2018-03-18T17:58:54.097Z,42.40
2018-03-18T18:00:55.914Z,42.70
2018-03-18T18:02:56.893Z,42.80
2018-03-18T18:04:57.876Z,42.60
2018-03-18T18:06:58.845Z,42.90
2018-03-18T18:09:00.580Z,43.40
2018-03-18T18:11:01.571Z,43.40
2018-03-18T18:13:02.546Z,43.50
2018-03-18T18:15:03.553Z,43.50
2018-03-18T18:17:04.593Z,44.00
2018-03-18T18:19:05.870Z,44.40
2018-03-18T18:21:07.222Z,44.40
2018-03-18T18:23:08.572Z,44.60
2018-03-18T18:25:10.290Z,44.80
2018-03-18T18:27:11.272Z,44.80
2018-03-18T18:29:12.259Z,45.00
2018-03-18T18:31:13.359Z,45.20
2018-03-18T18:33:14.367Z,45.40
2018-03-18T18:35:15.714Z,45.90
2018-03-18T18:37:16.749Z,45.90
2018-03-18T18:39:18.092Z,46.10
2018-03-18T18:41:19.474Z,46.50
2018-03-18T18:43:20.572Z,46.50
2018-03-18T18:45:21.433Z,46.80
2018-03-18T18:47:22.412Z,46.90
2018-03-18T18:49:23.473Z,46.90
2018-03-18T18:51:24.821Z,47.10
2018-03-18T18:53:26.178Z,47.50
2018-03-18T18:55:27.159Z,47.50
2018-03-18T18:57:28.274Z,47.70
2018-03-18T18:59:29.300Z,47.90
2018-03-18T19:01:38.632Z,48.00
2018-03-18T19:03:39.639Z,48.30
2018-03-18T19:05:40.982Z,49.10
2018-03-18T19:07:42.325Z,49.60
2018-03-18T19:09:43.672Z,49.70
2018-03-18T19:11:44.644Z,49.70
2018-03-18T19:13:45.653Z,49.70
2018-03-18T19:15:46.791Z,50.20
2018-03-18T19:17:47.789Z,50.40
2018-03-18T19:19:48.731Z,50.50
2018-03-18T19:21:50.109Z,51.20
2018-03-18T19:23:51.074Z,51.20
2018-03-18T19:25:52.038Z,51.40
2018-03-18T19:27:53.026Z,51.50
2018-03-18T19:29:54.009Z,51.80
2018-03-18T19:31:54.972Z,51.90
2018-03-18T19:33:55.931Z,51.90
2018-03-18T19:35:56.900Z,52.10
2018-03-18T19:37:57.860Z,52.20
2018-03-18T19:39:59.224Z,52.60
2018-03-18T19:42:00.194Z,52.60
2018-03-18T19:44:01.163Z,52.50
2018-03-18T19:46:02.542Z,52.50
2018-03-18T19:48:03.512Z,52.50
2018-03-18T19:50:04.473Z,52.60
2018-03-18T19:52:05.825Z,52.80
2018-03-18T19:54:07.173Z,53.30
2018-03-18T19:56:08.168Z,53.20
2018-03-18T19:58:09.144Z,53.20
2018-03-18T20:00:10.489Z,53.30
2018-03-18T20:02:11.461Z,53.30
2018-03-18T20:04:12.453Z,53.60
2018-03-18T20:06:13.861Z,53.80
2018-03-18T20:08:14.852Z,53.80
2018-03-18T20:10:15.835Z,54.10
2018-03-18T20:12:16.798Z,54.20
2018-03-18T20:14:18.149Z,54.80
2018-03-18T20:16:19.491Z,54.90
2018-03-18T20:18:20.815Z,55.50
2018-03-18T20:20:21.800Z,55.50
2018-03-18T20:22:22.764Z,55.10
2018-03-18T20:24:23.718Z,55.20
2018-03-18T20:26:24.800Z,55.80
2018-03-18T20:28:25.761Z,55.80
2018-03-18T20:30:26.735Z,55.90
2018-03-18T20:32:28.098Z,56.20
2018-03-18T20:34:29.060Z,56.20
2018-03-18T20:36:30.026Z,56.10
2018-03-18T20:38:31.009Z,56.10
2018-03-18T20:40:31.971Z,56.20
2018-03-18T20:42:32.945Z,56.60
2018-03-18T20:44:34.294Z,56.90
2018-03-18T20:46:35.640Z,57.20
2018-03-18T20:48:37.077Z,57.30
2018-03-18T20:50:38.413Z,57.50
2018-03-18T20:52:39.388Z,57.50
2018-03-18T20:54:40.352Z,57.60
2018-03-18T20:56:41.604Z,57.50
2018-03-18T20:58:42.587Z,57.80
2018-03-18T21:00:43.552Z,58.10
2018-03-18T21:02:44.553Z,58.10
2018-03-18T21:04:45.510Z,58.10
2018-03-18T21:06:46.476Z,58.10
2018-03-18T21:08:47.482Z,58.30
2018-03-18T21:10:48.473Z,58.40
2018-03-18T21:12:49.420Z,58.60
2018-03-18T21:14:50.784Z,58.80
2018-03-18T21:16:51.731Z,58.80
2018-03-18T21:18:52.708Z,58.60
2018-03-18T21:20:53.680Z,59.20
2018-03-18T21:22:54.629Z,59.40
2018-03-18T21:24:55.913Z,59.60
2018-03-18T21:26:56.887Z,59.80
2018-03-18T21:28:57.841Z,59.90
2018-03-18T21:30:59.732Z,60.00
2018-03-18T21:33:00.712Z,60.20
2018-03-18T21:35:01.687Z,60.50
2018-03-18T21:37:02.688Z,60.60
2018-03-18T21:39:03.645Z,60.80
2018-03-18T21:41:04.613Z,61.00
2018-03-18T21:43:05.617Z,61.10
2018-03-18T21:45:06.592Z,60.90
2018-03-18T21:47:07.539Z,61.20
2018-03-18T21:49:08.876Z,61.70
2018-03-18T21:51:09.844Z,61.70
2018-03-18T21:53:10.844Z,61.70
2018-03-18T21:55:11.789Z,61.90
2018-03-18T21:57:13.402Z,61.80
2018-03-18T21:59:14.763Z,61.80
2018-03-18T22:01:15.713Z,62.20
2018-03-18T22:03:17.051Z,62.30
2018-03-18T22:05:18.389Z,62.30
2018-03-18T22:07:20.184Z,62.40
2018-03-18T22:09:21.184Z,62.50
2018-03-18T22:11:22.513Z,63.00
2018-03-18T22:13:23.516Z,63.00
2018-03-18T22:15:24.492Z,63.20
2018-03-18T22:17:25.452Z,63.30
2018-03-18T22:19:26.545Z,63.70
2018-03-18T22:21:27.507Z,63.50
2018-03-18T22:23:28.873Z,63.80
2018-03-18T22:25:30.179Z,63.80
2018-03-18T22:27:31.150Z,63.90
2018-03-18T22:29:32.105Z,64.20
2018-03-18T22:31:33.346Z,64.40
2018-03-18T22:33:34.296Z,64.20
2018-03-18T22:35:35.281Z,64.20
2018-03-18T22:37:36.625Z,64.90
2018-03-18T22:39:37.583Z,64.90
2018-03-18T22:41:38.575Z,64.70
2018-03-18T22:43:39.536Z,64.20
2018-03-18T22:45:40.504Z,64.40
2018-03-18T22:47:41.479Z,64.80
2018-03-18T22:49:42.823Z,65.20
2018-03-18T22:51:44.144Z,65.40
2018-03-18T22:53:45.116Z,65.40
2018-03-18T22:55:46.436Z,66.00
2018-03-18T22:57:47.407Z,66.00
2018-03-18T22:59:48.397Z,66.10
2018-03-18T23:01:49.378Z,66.10
2018-03-18T23:03:50.332Z,66.20
2018-03-18T23:05:51.312Z,66.50
2018-03-18T23:07:52.295Z,66.70
2018-03-18T23:09:53.261Z,66.60
2018-03-18T23:11:54.239Z,66.70
2018-03-18T23:13:55.213Z,66.90
2018-03-18T23:15:56.172Z,67.00
2018-03-18T23:17:58.450Z,67.40
2018-03-18T23:19:59.498Z,67.40
2018-03-18T23:22:00.894Z,68.10
2018-03-18T23:24:01.870Z,68.10
2018-03-18T23:26:03.219Z,67.80
2018-03-18T23:28:04.548Z,67.20
2018-03-18T23:30:05.568Z,67.20
2018-03-18T23:32:06.531Z,67.30
2018-03-18T23:34:07.934Z,67.50
2018-03-18T23:36:08.921Z,67.50
2018-03-18T23:38:10.278Z,68.30
2018-03-18T23:40:11.240Z,68.30
2018-03-18T23:42:12.335Z,68.30
2018-03-18T23:44:13.697Z,68.30
2018-03-18T23:46:14.667Z,68.30
2018-03-18T23:48:15.663Z,68.20
2018-03-18T23:50:16.634Z,68.10
2018-03-18T23:52:17.613Z,68.40
2018-03-18T23:54:18.944Z,68.60
2018-03-18T23:56:19.911Z,68.60
2018-03-18T23:58:20.901Z,68.50
